Time;durP1;ratioP1;P1;durP2;ratioP2;P2;SDS_P1;SDS_P2;PMS_P1;PMS_P2;Temp;Humidity;BMP_temperature;BMP_pressure;BME280_temperature;BME280_humidity;BME280_pressure;Samples;Min_cycle;Max_cycle;Signal;HPM_P1;HPM_P2
2022/11/13 00:01:45;;;;;;;2.78;0.47;;;9.50;99.90;;;;;;5035580;28;20505;-77
2022/11/13 00:04:31;;;;;;;0.73;0.20;;;9.50;99.90;;;;;;5031830;28;20136;-76
2022/11/13 00:07:17;;;;;;;1.08;0.30;;;9.50;99.90;;;;;;5031489;28;20140;-77
2022/11/13 00:10:06;;;;;;;1.08;0.30;;;9.50;99.90;;;;;;5049739;28;20539;-77
2022/11/13 00:12:52;;;;;;;2.22;0.30;;;9.50;99.90;;;;;;5051116;28;20527;-78
2022/11/13 00:15:38;;;;;;;0.63;0.20;;;9.50;99.90;;;;;;5051398;28;20045;-78
2022/11/13 00:18:25;;;;;;;1.25;0.47;;;9.50;99.90;;;;;;5032566;28;20052;-77
2022/11/13 00:21:15;;;;;;;2.97;0.30;;;9.50;99.90;;;;;;5031392;28;20683;-77
2022/11/13 00:24:01;;;;;;;3.45;0.13;;;9.50;99.90;;;;;;5030921;28;20057;-77
2022/11/13 00:26:50;;;;;;;0.60;0.25;;;9.50;99.90;;;;;;5043091;28;20059;-77
2022/11/13 00:29:36;;;;;;;1.50;0.13;;;9.50;99.90;;;;;;5051139;28;20564;-76
2022/11/13 00:32:22;;;;;;;2.72;0.47;;;9.50;99.90;;;;;;5066301;28;20056;-77
2022/11/13 00:35:09;;;;;;;3.17;0.20;;;9.50;99.90;;;;;;5043452;28;20506;-77
2022/11/13 00:37:55;;;;;;;0.70;0.10;;;9.50;99.90;;;;;;5046249;28;20057;-77
2022/11/13 00:40:41;;;;;;;2.45;0.38;;;9.60;99.90;;;;;;5031487;28;20048;-77
2022/11/13 00:43:28;;;;;;;0.20;0.20;;;9.60;99.90;;;;;;5030864;28;20157;-77
2022/11/13 00:46:15;;;;;;;1.05;0.20;;;9.50;99.90;;;;;;5050693;28;20044;-77
2022/11/13 00:49:01;;;;;;;1.73;0.38;;;9.50;99.90;;;;;;5050851;28;20145;-76
2022/11/13 00:51:47;;;;;;;0.50;0.30;;;9.50;99.90;;;;;;5050568;28;20071;-77
2022/11/13 00:54:33;;;;;;;1.50;0.20;;;9.50;99.90;;;;;;5051587;28;20236;-78
2022/11/13 00:57:19;;;;;;;1.30;0.25;;;9.50;99.90;;;;;;5046889;28;20147;-77
2022/11/13 01:00:09;;;;;;;1.25;0.40;;;9.50;99.90;;;;;;5048480;28;20052;-77
2022/11/13 01:02:55;;;;;;;1.17;0.10;;;9.50;99.90;;;;;;5037581;28;20051;-78
2022/11/13 01:05:44;;;;;;;1.48;0.30;;;9.50;99.90;;;;;;5043042;28;20048;-78
2022/11/13 01:08:30;;;;;;;0.93;0.30;;;9.50;99.90;;;;;;5049031;28;20651;-78
2022/11/13 01:11:18;;;;;;;0.95;0.30;;;9.50;99.90;;;;;;5064804;28;20048;-79
2022/11/13 01:14:05;;;;;;;1.27;0.30;;;9.60;99.90;;;;;;5050722;28;20044;-79
2022/11/13 01:16:52;;;;;;;0.68;0.10;;;9.60;99.90;;;;;;5066301;28;20049;-77
2022/11/13 01:19:38;;;;;;;0.98;0.30;;;9.60;99.90;;;;;;5049455;28;20072;-78
2022/11/13 01:22:24;;;;;;;0.30;0.20;;;9.60;99.90;;;;;;5046614;28;20548;-78
2022/11/13 01:25:10;;;;;;;0.52;0.17;;;9.70;99.90;;;;;;5048935;28;20382;-78
2022/11/13 01:27:56;;;;;;;0.20;0.15;;;9.70;99.90;;;;;;5050229;28;20049;-77
2022/11/13 01:30:42;;;;;;;2.03;0.20;;;9.70;99.90;;;;;;5049932;28;20051;-77
2022/11/13 01:33:29;;;;;;;1.02;0.30;;;9.70;99.90;;;;;;5050695;28;20053;-77
2022/11/13 01:36:19;;;;;;;1.35;0.35;;;9.70;99.90;;;;;;5054639;28;20072;-77
2022/11/13 01:39:05;;;;;;;1.65;0.32;;;9.60;99.90;;;;;;5043566;28;20051;-77
2022/11/13 01:41:51;;;;;;;1.02;0.35;;;9.60;99.90;;;;;;5044151;28;20051;-77
2022/11/13 01:44:50;;;;;;;1.40;0.50;;;9.60;99.90;;;;;;5039404;28;20049;-77
2022/11/13 01:47:36;;;;;;;0.95;0.38;;;9.70;99.90;;;;;;5039749;28;20049;-77
2022/11/13 01:50:24;;;;;;;2.40;0.20;;;9.60;99.90;;;;;;5034877;28;20045;-77
2022/11/13 01:53:10;;;;;;;0.35;0.10;;;9.60;99.90;;;;;;5060099;28;20048;-78
2022/11/13 01:55:56;;;;;;;1.90;0.30;;;9.60;99.90;;;;;;5046619;28;20140;-78
2022/11/13 01:58:48;;;;;;;0.57;0.10;;;9.60;99.90;;;;;;5036706;28;20608;-77
2022/11/13 02:01:34;;;;;;;0.85;0.22;;;9.60;99.90;;;;;;5043647;28;20059;-76
2022/11/13 02:04:20;;;;;;;0.22;0.22;;;9.60;99.90;;;;;;5064439;28;20428;-77
2022/11/13 02:07:11;;;;;;;1.20;0.40;;;9.60;99.90;;;;;;5051044;28;20190;-77
2022/11/13 02:10:00;;;;;;;1.63;0.20;;;9.60;99.90;;;;;;5037527;28;20044;-77
2022/11/13 02:12:51;;;;;;;1.17;0.20;;;9.60;99.90;;;;;;5045901;28;20123;-77
2022/11/13 02:15:37;;;;;;;1.55;0.13;;;9.60;99.90;;;;;;5035840;28;20476;-77
2022/11/13 02:18:24;;;;;;;0.45;0.17;;;9.60;99.90;;;;;;5048388;28;20042;-77
2022/11/13 02:21:31;;;;;;;0.20;0.15;;;9.60;99.90;;;;;;5036275;28;20076;-77
2022/11/13 02:24:24;;;;;;;0.98;0.20;;;9.50;99.90;;;;;;5047365;28;20401;-77
2022/11/13 02:27:17;;;;;;;2.20;0.10;;;9.50;99.90;;;;;;5066561;28;20096;-76
2022/11/13 02:30:14;;;;;;;2.67;0.30;;;9.40;99.90;;;;;;5050272;28;20064;-73
2022/11/13 02:33:00;;;;;;;0.88;0.32;;;9.50;99.90;;;;;;5047638;28;20493;-73
2022/11/13 02:35:46;;;;;;;2.30;0.20;;;9.40;99.90;;;;;;5036438;28;20119;-72
2022/11/13 02:38:35;;;;;;;0.10;0.10;;;9.40;99.90;;;;;;5035951;28;20083;-72
2022/11/13 02:41:22;;;;;;;1.08;0.30;;;9.40;99.90;;;;;;5048156;28;20044;-74
2022/11/13 02:44:08;;;;;;;1.85;0.20;;;9.30;99.90;;;;;;5038358;28;20068;-73
2022/11/13 02:46:54;;;;;;;0.20;0.17;;;9.30;99.90;;;;;;5050891;28;20049;-77
2022/11/13 02:49:40;;;;;;;0.47;0.10;;;9.30;99.90;;;;;;5049433;28;20044;-77
2022/11/13 02:52:26;;;;;;;1.45;0.28;;;9.30;99.90;;;;;;5048671;28;20111;-77
2022/11/13 02:55:13;;;;;;;0.50;0.20;;;9.30;99.90;;;;;;5051599;28;20052;-77
2022/11/13 02:58:00;;;;;;;0.50;0.15;;;9.30;99.90;;;;;;5048083;28;20068;-77
2022/11/13 03:00:46;;;;;;;1.65;0.13;;;9.30;99.90;;;;;;5036569;28;20053;-77
2022/11/13 03:03:31;;;;;;;0.20;0.20;;;9.30;99.90;;;;;;5050209;28;20045;-77
2022/11/13 03:06:17;;;;;;;0.47;0.30;;;9.30;99.90;;;;;;5039293;28;20052;-77
2022/11/13 03:09:03;;;;;;;2.13;0.20;;;9.30;99.90;;;;;;5045169;28;20049;-72
2022/11/13 03:11:49;;;;;;;0.57;0.20;;;9.20;99.90;;;;;;5048254;28;20056;-73
2022/11/13 03:14:37;;;;;;;0.50;0.10;;;9.20;99.90;;;;;;5048439;28;20072;-73
2022/11/13 03:17:23;;;;;;;0.50;0.30;;;9.10;99.90;;;;;;5041614;28;20049;-73
2022/11/13 03:20:10;;;;;;;1.65;0.10;;;9.10;99.90;;;;;;5048303;28;20049;-73
2022/11/13 03:22:56;;;;;;;0.30;0.10;;;9.10;99.90;;;;;;5037904;28;20041;-73
2022/11/13 03:25:41;;;;;;;0.90;0.20;;;9.10;99.90;;;;;;5048551;28;20044;-72
2022/11/13 03:28:28;;;;;;;1.77;0.35;;;9.00;99.90;;;;;;5053317;28;20418;-72
2022/11/13 03:31:16;;;;;;;0.80;0.15;;;9.00;99.90;;;;;;5062526;28;20106;-73
2022/11/13 03:34:01;;;;;;;0.82;0.28;;;9.00;99.90;;;;;;5050173;28;20061;-73
2022/11/13 03:36:47;;;;;;;0.95;0.22;;;8.90;99.90;;;;;;5038692;28;20505;-72
2022/11/13 03:39:33;;;;;;;0.30;0.08;;;8.90;99.90;;;;;;5050109;28;20135;-72
2022/11/13 03:42:19;;;;;;;1.42;0.20;;;8.90;99.90;;;;;;5050973;28;20531;-73
2022/11/13 03:45:06;;;;;;;3.40;0.32;;;9.00;99.90;;;;;;5040846;28;20111;-72
2022/11/13 03:47:53;;;;;;;0.65;0.15;;;8.90;99.90;;;;;;5050251;28;20409;-73
2022/11/13 03:50:39;;;;;;;0.20;0.20;;;8.90;99.90;;;;;;5035485;28;20052;-73
2022/11/13 03:53:25;;;;;;;0.80;0.20;;;8.80;99.90;;;;;;5037095;28;20643;-73
2022/11/13 03:56:11;;;;;;;0.20;0.13;;;8.80;99.90;;;;;;5041456;28;20080;-72
2022/11/13 03:58:57;;;;;;;2.38;0.40;;;8.80;99.90;;;;;;5038848;28;20048;-73
2022/11/13 04:01:43;;;;;;;3.47;0.40;;;8.80;99.90;;;;;;5065402;28;20047;-73
2022/11/13 04:04:30;;;;;;;0.55;0.20;;;8.80;99.90;;;;;;5048481;28;20098;-73
2022/11/13 04:07:17;;;;;;;1.63;0.35;;;8.70;99.90;;;;;;5048332;28;20171;-73
2022/11/13 04:10:04;;;;;;;1.38;0.40;;;8.60;99.90;;;;;;5059943;28;20048;-73
2022/11/13 04:12:50;;;;;;;0.70;0.30;;;8.50;99.90;;;;;;5048778;28;20053;-72
2022/11/13 04:15:36;;;;;;;2.38;0.43;;;8.40;99.90;;;;;;5048215;28;20037;-72
2022/11/13 04:18:22;;;;;;;1.65;0.60;;;8.40;99.90;;;;;;5033970;28;20390;-73
2022/11/13 04:21:09;;;;;;;0.35;0.10;;;8.40;99.90;;;;;;5034878;28;20061;-73
2022/11/13 04:23:56;;;;;;;1.23;0.57;;;8.40;99.90;;;;;;5033525;28;20161;-73
2022/11/13 04:26:43;;;;;;;0.30;0.30;;;8.40;99.90;;;;;;5049298;28;20488;-72
2022/11/13 04:29:29;;;;;;;0.45;0.20;;;8.40;99.90;;;;;;5049311;28;20417;-72
2022/11/13 04:32:15;;;;;;;0.77;0.20;;;8.40;99.90;;;;;;5040236;28;20041;-72
2022/11/13 04:35:01;;;;;;;4.15;0.20;;;8.40;99.90;;;;;;5035123;28;20078;-73
2022/11/13 04:37:48;;;;;;;0.70;0.20;;;8.30;99.90;;;;;;5039595;28;20211;-72
2022/11/13 04:40:33;;;;;;;0.68;0.30;;;8.20;99.90;;;;;;5046798;28;20048;-72
2022/11/13 04:43:18;;;;;;;0.52;0.20;;;8.10;99.90;;;;;;5039859;28;20516;-72
2022/11/13 04:46:04;;;;;;;1.60;0.30;;;8.10;99.90;;;;;;5042131;28;20079;-73
2022/11/13 04:48:50;;;;;;;1.02;0.30;;;8.00;99.90;;;;;;5044824;28;20401;-72
2022/11/13 04:51:36;;;;;;;1.13;0.35;;;8.00;99.90;;;;;;5049363;28;20053;-72
2022/11/13 04:54:24;;;;;;;0.68;0.10;;;7.90;99.90;;;;;;5036571;28;20049;-72
2022/11/13 04:57:10;;;;;;;0.35;0.20;;;7.90;99.90;;;;;;5035274;28;20041;-72
2022/11/13 04:59:56;;;;;;;0.10;0.10;;;7.90;99.90;;;;;;5037234;28;20045;-72
2022/11/13 05:02:44;;;;;;;0.22;0.13;;;7.80;99.90;;;;;;5040700;28;20057;-72
2022/11/13 05:05:30;;;;;;;0.55;0.20;;;7.80;99.90;;;;;;5049203;28;20121;-73
2022/11/13 05:08:16;;;;;;;0.15;0.10;;;7.80;99.90;;;;;;5052689;28;20049;-73
2022/11/13 05:11:04;;;;;;;0.22;0.20;;;7.90;99.90;;;;;;5049264;28;20060;-72
2022/11/13 05:13:50;;;;;;;1.65;0.20;;;7.90;99.90;;;;;;5049587;28;20130;-75
2022/11/13 05:16:36;;;;;;;0.68;0.40;;;7.90;99.90;;;;;;5035049;28;20042;-73
2022/11/13 05:19:23;;;;;;;1.75;0.30;;;7.90;99.90;;;;;;5032759;28;20053;-73
2022/11/13 05:22:09;;;;;;;0.10;0.10;;;7.90;99.90;;;;;;5033740;28;20037;-73
2022/11/13 05:24:56;;;;;;;0.20;0.20;;;7.80;99.90;;;;;;5060354;28;20103;-73
2022/11/13 05:27:43;;;;;;;0.80;0.10;;;7.80;99.90;;;;;;5048539;28;20056;-73
2022/11/13 05:30:28;;;;;;;0.40;0.10;;;7.70;99.90;;;;;;5048645;28;20041;-73
2022/11/13 05:33:14;;;;;;;0.65;0.15;;;7.70;99.90;;;;;;5043884;28;20053;-73
2022/11/13 05:36:04;;;;;;;0.45;0.10;;;7.70;99.90;;;;;;5042493;28;20045;-73
2022/11/13 05:38:50;;;;;;;1.23;0.30;;;7.60;99.90;;;;;;5035890;28;20420;-73
2022/11/13 05:41:36;;;;;;;1.08;0.30;;;7.60;99.90;;;;;;5052930;28;20206;-74
2022/11/13 05:44:24;;;;;;;0.32;0.30;;;7.50;99.90;;;;;;5051052;28;20380;-74
2022/11/13 05:47:09;;;;;;;1.50;0.20;;;7.50;99.90;;;;;;5040737;28;20416;-73
2022/11/13 05:49:55;;;;;;;0.30;0.28;;;7.50;99.90;;;;;;5052820;28;20057;-74
2022/11/13 05:52:41;;;;;;;0.70;0.47;;;7.50;99.90;;;;;;5038932;28;20052;-73
2022/11/13 05:55:44;;;;;;;4.03;0.20;;;7.50;99.90;;;;;;5051978;28;20077;-74
2022/11/13 05:58:31;;;;;;;0.45;0.20;;;7.50;99.90;;;;;;5058903;28;20048;-73
2022/11/13 06:01:21;;;;;;;2.28;0.17;;;7.40;99.90;;;;;;5048322;28;20057;-75
2022/11/13 06:04:08;;;;;;;0.52;0.20;;;7.40;99.90;;;;;;5052152;28;20053;-73
2022/11/13 06:06:54;;;;;;;0.95;0.20;;;7.30;99.90;;;;;;5052748;28;20591;-73
2022/11/13 06:09:40;;;;;;;2.55;0.20;;;7.30;99.90;;;;;;5045182;28;20430;-73
2022/11/13 06:12:26;;;;;;;1.85;0.20;;;7.30;99.90;;;;;;5052630;28;20406;-72
2022/11/13 06:15:12;;;;;;;1.83;0.20;;;7.30;99.90;;;;;;5043319;28;20053;-71
2022/11/13 06:18:00;;;;;;;1.05;0.10;;;7.30;99.90;;;;;;5053836;28;20052;-76
2022/11/13 06:20:46;;;;;;;0.95;0.20;;;7.30;99.90;;;;;;5033973;28;20088;-78
2022/11/13 06:23:45;;;;;;;0.88;0.80;;;7.30;99.90;;;;;;5045194;28;20076;-79
2022/11/13 06:26:49;;;;;;;1.65;0.80;;;7.30;99.90;;;;;;5053356;28;20087;-73
2022/11/13 06:29:35;;;;;;;1.55;0.85;;;7.30;99.90;;;;;;5045420;28;20446;-73
2022/11/13 06:32:22;;;;;;;1.75;0.70;;;7.30;99.90;;;;;;5051705;28;20350;-72
2022/11/13 06:35:09;;;;;;;1.65;0.65;;;7.20;99.90;;;;;;5051449;28;20187;-72
2022/11/13 06:37:56;;;;;;;1.95;0.63;;;7.20;99.90;;;;;;5047770;28;20063;-76
2022/11/13 06:40:42;;;;;;;0.90;0.50;;;7.20;99.90;;;;;;5044632;28;20044;-78
2022/11/13 06:43:29;;;;;;;5.15;0.63;;;7.20;99.90;;;;;;5052807;28;20553;-80
2022/11/13 06:46:17;;;;;;;6.78;0.90;;;7.20;99.90;;;;;;5066098;28;20048;-79
2022/11/13 06:49:04;;;;;;;0.47;0.45;;;7.40;99.90;;;;;;5046028;28;20498;-76
2022/11/13 06:51:54;;;;;;;3.53;1.05;;;7.60;99.90;;;;;;5041745;28;20461;-74
2022/11/13 06:54:40;;;;;;;1.42;0.70;;;7.80;99.90;;;;;;5041589;28;20056;-76
2022/11/13 06:57:26;;;;;;;1.10;0.60;;;8.00;99.90;;;;;;5049165;28;20044;-74
2022/11/13 07:00:14;;;;;;;4.55;0.47;;;8.00;99.90;;;;;;5051156;28;20057;-75
2022/11/13 07:03:00;;;;;;;0.88;0.75;;;8.10;99.90;;;;;;5053797;28;20041;-75
2022/11/13 07:05:46;;;;;;;4.78;1.60;;;8.20;99.90;;;;;;5034147;28;20053;-74
2022/11/13 07:08:35;;;;;;;1.02;0.80;;;8.30;99.90;;;;;;5035842;28;20163;-75
2022/11/13 07:11:23;;;;;;;3.60;0.77;;;8.30;99.90;;;;;;5067805;28;20476;-75
2022/11/13 07:14:11;;;;;;;5.00;0.68;;;8.30;99.90;;;;;;5067970;28;20079;-72
2022/11/13 07:17:00;;;;;;;2.53;0.68;;;8.40;99.90;;;;;;5052480;28;20045;-73
2022/11/13 07:19:46;;;;;;;0.98;0.70;;;8.40;99.90;;;;;;5052357;28;20417;-72
2022/11/13 07:22:32;;;;;;;2.90;0.60;;;8.40;99.90;;;;;;5037111;28;20462;-75
2022/11/13 07:25:19;;;;;;;4.53;0.93;;;8.40;99.90;;;;;;5049235;28;20048;-76
2022/11/13 07:28:06;;;;;;;5.70;1.00;;;8.40;99.90;;;;;;5052130;28;20044;-71
2022/11/13 07:30:52;;;;;;;7.20;1.50;;;8.40;99.90;;;;;;5047305;28;20535;-73
2022/11/13 07:33:39;;;;;;;3.03;1.00;;;8.50;99.90;;;;;;5047744;28;20049;-73
2022/11/13 07:36:25;;;;;;;3.85;1.10;;;8.50;99.90;;;;;;5050685;28;20041;-77
2022/11/13 07:39:11;;;;;;;2.97;0.80;;;8.50;99.90;;;;;;5038807;28;20054;-79
2022/11/13 07:41:59;;;;;;;1.85;0.70;;;8.60;99.90;;;;;;5052619;28;20045;-78
2022/11/13 07:44:45;;;;;;;6.50;0.90;;;8.70;99.90;;;;;;5063184;28;20062;-78
2022/11/13 07:47:31;;;;;;;4.03;0.57;;;8.70;99.90;;;;;;5071993;28;20424;-77
2022/11/13 07:50:18;;;;;;;3.42;0.95;;;8.80;99.90;;;;;;5039627;28;20053;-79
2022/11/13 07:53:07;;;;;;;0.60;0.60;;;8.80;99.90;;;;;;5033954;28;20107;-78
2022/11/13 07:55:53;;;;;;;3.78;0.98;;;8.90;99.90;;;;;;5055372;28;20053;-78
2022/11/13 07:58:40;;;;;;;0.88;0.70;;;8.90;99.90;;;;;;5051951;28;20059;-77
2022/11/13 08:01:27;;;;;;;5.82;0.70;;;9.00;99.90;;;;;;5041724;28;20473;-78
2022/11/13 08:04:13;;;;;;;2.38;0.80;;;9.10;99.90;;;;;;5047428;28;20147;-81
2022/11/13 08:06:59;;;;;;;5.47;0.82;;;9.30;99.90;;;;;;5044609;28;20079;-80
2022/11/13 08:09:44;;;;;;;3.47;0.90;;;9.40;99.90;;;;;;5048869;28;20055;-80
2022/11/13 08:12:31;;;;;;;4.70;0.98;;;9.50;99.90;;;;;;5042568;28;20175;-80
2022/11/13 08:15:18;;;;;;;7.68;2.67;;;9.60;99.90;;;;;;5043910;28;20132;-78
2022/11/13 08:18:07;;;;;;;5.88;1.25;;;9.60;99.90;;;;;;5046457;28;20087;-79
2022/11/13 08:20:53;;;;;;;3.63;1.15;;;9.50;99.90;;;;;;5045589;28;20055;-79
2022/11/13 08:23:41;;;;;;;2.63;1.00;;;9.50;99.90;;;;;;5047651;28;20238;-79
2022/11/13 08:26:27;;;;;;;1.35;0.95;;;10.10;99.90;;;;;;5043857;28;20059;-77
2022/11/13 08:29:14;;;;;;;4.22;1.30;;;11.50;99.90;;;;;;5047805;28;20041;-77
2022/11/13 08:32:01;;;;;;;2.60;1.08;;;13.00;99.90;;;;;;5045618;28;20083;-75
2022/11/13 08:34:47;;;;;;;1.02;0.85;;;13.80;99.90;;;;;;5050010;28;20053;-75
2022/11/13 08:37:34;;;;;;;5.78;1.00;;;13.90;99.90;;;;;;5047693;28;20049;-81
2022/11/13 08:40:20;;;;;;;5.95;1.23;;;15.20;99.90;;;;;;5047844;28;20075;-75
2022/11/13 08:43:06;;;;;;;4.10;0.73;;;15.40;99.90;;;;;;5041479;28;20149;-76
2022/11/13 08:45:54;;;;;;;9.02;1.20;;;15.80;99.90;;;;;;5049006;28;20060;-75
2022/11/13 08:48:41;;;;;;;5.07;1.30;;;15.80;98.30;;;;;;5044220;28;20049;-75
2022/11/13 08:51:28;;;;;;;6.20;1.13;;;15.20;97.10;;;;;;5046482;28;20072;-76
2022/11/13 08:54:14;;;;;;;4.15;1.33;;;15.30;98.30;;;;;;5042612;28;20051;-75
2022/11/13 08:57:00;;;;;;;2.75;0.80;;;15.40;96.90;;;;;;5041239;28;20098;-73
2022/11/13 08:59:46;;;;;;;3.08;1.10;;;15.50;96.40;;;;;;5046455;28;20048;-77
2022/11/13 09:02:33;;;;;;;5.00;1.63;;;16.50;93.70;;;;;;5005887;28;20060;-77
2022/11/13 09:05:23;;;;;;;2.67;1.10;;;16.70;91.50;;;;;;5052282;28;20055;-76
2022/11/13 09:08:09;;;;;;;2.80;1.20;;;15.60;90.70;;;;;;5052258;28;20048;-78
2022/11/13 09:10:56;;;;;;;6.25;1.00;;;14.50;92.60;;;;;;5055843;28;20517;-78
2022/11/13 09:13:42;;;;;;;6.15;1.05;;;14.10;95.10;;;;;;5059967;28;20045;-77
2022/11/13 09:16:28;;;;;;;6.40;1.27;;;14.70;95.60;;;;;;5053379;28;20094;-78
2022/11/13 09:19:14;;;;;;;2.38;0.93;;;15.80;93.40;;;;;;5059056;28;20075;-74
2022/11/13 09:22:01;;;;;;;3.10;1.13;;;16.20;91.10;;;;;;5071259;28;20048;-74
2022/11/13 09:24:47;;;;;;;7.03;0.63;;;15.60;90.60;;;;;;5065775;28;20055;-74
2022/11/13 09:27:33;;;;;;;2.90;0.80;;;15.80;91.10;;;;;;5068468;28;20139;-75
2022/11/13 09:30:19;;;;;;;5.97;0.90;;;15.50;90.50;;;;;;5069303;28;20634;-76
2022/11/13 09:33:06;;;;;;;3.63;0.80;;;14.70;91.10;;;;;;5065715;28;20888;-73
2022/11/13 09:35:52;;;;;;;3.22;0.50;;;14.10;92.70;;;;;;5065976;28;20044;-72
2022/11/13 09:38:39;;;;;;;6.68;0.77;;;13.60;93.40;;;;;;5059560;28;20048;-73
2022/11/13 09:41:30;;;;;;;4.22;1.45;;;13.30;94.90;;;;;;5067542;28;20505;-74
2022/11/13 09:44:20;;;;;;;5.28;0.90;;;13.60;95.10;;;;;;5070483;28;20047;-73
2022/11/13 09:47:14;;;;;;;3.00;0.60;;;13.30;95.20;;;;;;5062790;28;20048;-74
2022/11/13 09:50:02;;;;;;;;;;;13.40;96.20;;;;;;5069826;28;20059;-72
2022/11/13 09:52:50;;;;;;;1.67;0.95;;;14.20;95.70;;;;;;5060743;28;19984;-77
2022/11/13 09:55:47;;;;;;;5.22;0.85;;;15.20;93.80;;;;;;5070411;28;20045;-76
2022/11/13 09:58:45;;;;;;;6.53;1.00;;;16.20;91.70;;;;;;5064301;28;20513;-75
2022/11/13 10:01:43;;;;;;;2.88;1.15;;;16.90;89.10;;;;;;5067152;28;20044;-74
2022/11/13 10:04:48;;;;;;;1.00;0.70;;;17.10;88.00;;;;;;5061580;28;20079;-73
2022/11/13 10:07:44;;;;;;;3.38;0.90;;;17.20;85.80;;;;;;5053495;28;20052;-72
2022/11/13 10:10:48;;;;;;;7.78;1.20;;;17.30;85.10;;;;;;5060082;28;20055;-73
2022/11/13 10:13:44;;;;;;;7.18;1.05;;;17.40;85.10;;;;;;5057904;28;20063;-76
2022/11/13 10:16:39;;;;;;;4.97;1.25;;;16.50;85.00;;;;;;5066722;28;20049;-78
2022/11/13 10:19:36;;;;;;;4.50;1.30;;;15.50;88.10;;;;;;5062206;28;20036;-76
2022/11/13 10:22:32;;;;;;;7.25;0.90;;;16.00;88.10;;;;;;5068558;28;20094;-75
2022/11/13 10:25:21;;;;;;;1.70;0.95;;;17.00;85.40;;;;;;5065975;28;20143;-76
2022/11/13 10:28:14;;;;;;;4.30;1.33;;;17.20;83.00;;;;;;5067746;28;20365;-76
2022/11/13 10:31:52;;;;;;;5.78;1.13;;;17.50;82.00;;;;;;5067251;28;20515;-77
2022/11/13 10:34:39;;;;;;;2.17;0.80;;;17.60;80.30;;;;;;4980688;28;20138;-76
2022/11/13 10:37:52;;;;;;;3.33;0.98;;;17.60;79.20;;;;;;4953890;28;20057;-74
2022/11/13 10:40:41;;;;;;;7.45;1.35;;;17.30;80.00;;;;;;5061275;28;20500;-72
2022/11/13 10:43:29;;;;;;;3.55;1.08;;;16.70;79.30;;;;;;5063538;28;20582;-74
2022/11/13 10:46:21;;;;;;;2.35;0.95;;;15.40;82.40;;;;;;5060681;28;21143;-75
2022/11/13 10:49:18;;;;;;;1.93;1.10;;;14.10;87.30;;;;;;5058570;28;20049;-75
2022/11/13 10:52:13;;;;;;;2.22;0.82;;;13.20;90.30;;;;;;5056653;28;20071;-75
2022/11/13 10:55:17;;;;;;;3.40;0.90;;;12.40;91.80;;;;;;5061833;28;20185;-77
2022/11/13 10:58:12;;;;;;;9.23;1.27;;;11.70;93.60;;;;;;5064456;28;20078;-76
2022/11/13 11:00:59;;;;;;;3.00;1.20;;;11.10;94.90;;;;;;5060039;28;20122;-77
2022/11/13 11:03:52;;;;;;;3.80;1.05;;;10.70;96.30;;;;;;5055332;28;20036;-77
2022/11/13 11:06:40;;;;;;;4.00;0.93;;;10.40;97.50;;;;;;5057866;28;20060;-78
2022/11/13 11:09:31;;;;;;;3.80;0.75;;;10.20;98.70;;;;;;5059068;28;20041;-78
2022/11/13 11:12:20;;;;;;;4.32;0.85;;;10.10;99.90;;;;;;5058923;28;20763;-78
2022/11/13 11:15:22;;;;;;;3.17;0.95;;;11.00;99.90;;;;;;5058024;28;20481;-78
2022/11/13 11:18:24;;;;;;;0.98;0.90;;;12.70;97.30;;;;;;5056142;28;20054;-77
2022/11/13 11:21:16;;;;;;;3.08;0.75;;;14.40;93.80;;;;;;5059920;28;20463;-75
2022/11/13 11:24:09;;;;;;;3.88;1.25;;;16.00;90.30;;;;;;5059501;28;20049;-78
2022/11/13 11:26:59;;;;;;;;;;;17.50;84.30;;;;;;5057562;28;20440;-77
2022/11/13 11:29:53;;;;;;;4.57;1.05;;;17.80;78.60;;;;;;5057667;28;19933;-78
2022/11/13 11:32:46;;;;;;;4.80;1.33;;;17.90;77.70;;;;;;5056304;28;20059;-76
2022/11/13 11:35:43;;;;;;;4.40;1.00;;;18.10;76.50;;;;;;5056181;28;20052;-78
2022/11/13 11:38:40;;;;;;;3.40;1.17;;;18.20;74.50;;;;;;5056552;28;20083;-77
2022/11/13 11:41:34;;;;;;;3.80;1.15;;;17.70;74.00;;;;;;5061046;28;20055;-77
2022/11/13 11:44:29;;;;;;;2.72;0.90;;;16.30;77.20;;;;;;5058010;28;20093;-77
2022/11/13 11:47:18;;;;;;;1.65;1.15;;;15.70;80.10;;;;;;5055604;28;20044;-77
2022/11/13 11:50:12;;;;;;;0.75;0.70;;;15.50;80.90;;;;;;5054778;28;20047;-77
2022/11/13 11:53:08;;;;;;;4.07;1.17;;;14.70;82.50;;;;;;5057682;28;20047;-81
2022/11/13 11:56:17;;;;;;;2.70;1.70;;;13.70;85.40;;;;;;5057609;28;20058;-81
2022/11/13 11:59:24;;;;;;;8.98;1.35;;;12.80;90.20;;;;;;5051295;28;20064;-80
2022/11/13 12:02:55;;;;;;;11.00;1.23;;;12.00;91.70;;;;;;5053767;28;20052;-81
2022/11/13 12:05:51;;;;;;;3.75;0.98;;;11.40;93.00;;;;;;5060532;28;20052;-79
2022/11/13 12:08:48;;;;;;;2.47;1.00;;;11.00;94.70;;;;;;5063562;28;20452;-76
2022/11/13 12:11:39;;;;;;;1.55;0.80;;;10.80;96.10;;;;;;5065821;28;20520;-74
2022/11/13 12:14:48;;;;;;;1.85;0.98;;;10.90;96.90;;;;;;5062012;28;20045;-73
2022/11/13 12:17:51;;;;;;;4.45;1.17;;;11.00;97.60;;;;;;5042779;28;20103;-72
2022/11/13 12:20:44;;;;;;;10.63;2.20;;;11.40;97.50;;;;;;5029250;28;20057;-76
2022/11/13 12:23:56;;;;;;;6.32;1.40;;;11.40;97.20;;;;;;5043365;28;20036;-75
2022/11/13 12:26:50;;;;;;;0.90;0.80;;;10.90;98.10;;;;;;5041857;28;20064;-74
2022/11/13 12:29:55;;;;;;;5.05;1.13;;;10.50;99.30;;;;;;5047979;28;20393;-73
2022/11/13 12:33:15;;;;;;;2.03;1.38;;;10.10;99.90;;;;;;5048534;28;20060;-73
2022/11/13 12:36:02;;;;;;;2.22;0.82;;;9.70;99.90;;;;;;5043119;28;20150;-73
2022/11/13 12:39:01;;;;;;;2.47;0.85;;;9.50;99.90;;;;;;5048728;28;20131;-73
2022/11/13 12:41:54;;;;;;;3.05;0.90;;;9.40;99.90;;;;;;5049926;28;20190;-73
2022/11/13 12:44:50;;;;;;;2.67;0.90;;;9.30;99.90;;;;;;5053405;28;20049;-79
2022/11/13 12:47:37;;;;;;;4.75;0.93;;;9.30;99.90;;;;;;5047386;28;20055;-78
2022/11/13 12:50:27;;;;;;;13.40;1.90;;;9.20;99.90;;;;;;5045716;28;20041;-77
2022/11/13 12:53:26;;;;;;;5.07;1.20;;;9.00;99.90;;;;;;5041834;28;20124;-78
2022/11/13 12:56:29;;;;;;;6.28;1.65;;;8.90;99.90;;;;;;5038197;28;20498;-80
2022/11/13 12:59:34;;;;;;;7.55;2.42;;;8.80;99.90;;;;;;5042014;28;20102;-77
2022/11/13 13:02:44;;;;;;;5.90;1.17;;;8.70;99.90;;;;;;5079060;28;20045;-79
2022/11/13 13:05:59;;;;;;;7.60;1.40;;;8.70;99.90;;;;;;5049443;28;20076;-76
2022/11/13 13:09:02;;;;;;;3.53;1.45;;;8.60;99.90;;;;;;5045879;28;20087;-76
2022/11/13 13:12:06;;;;;;;4.68;0.73;;;8.60;99.90;;;;;;5048951;28;20063;-77
2022/11/13 13:15:23;;;;;;;3.50;1.52;;;8.60;99.90;;;;;;5049673;28;20057;-80
2022/11/13 13:18:13;;;;;;;9.18;0.95;;;8.60;99.90;;;;;;5050766;28;20053;-81
2022/11/13 13:21:06;;;;;;;2.47;1.13;;;8.60;99.90;;;;;;5050779;28;20057;-81
2022/11/13 13:23:53;;;;;;;3.25;1.15;;;8.60;99.90;;;;;;5048131;28;20413;-78
2022/11/13 13:26:46;;;;;;;6.40;1.40;;;8.60;99.90;;;;;;5045739;28;20045;-79
2022/11/13 13:29:34;;;;;;;9.68;1.85;;;8.60;99.90;;;;;;5043112;28;20545;-74
2022/11/13 13:32:28;;;;;;;5.43;1.80;;;8.60;99.90;;;;;;5032794;28;20080;-72
2022/11/13 13:35:19;;;;;;;7.53;4.50;;;8.60;99.90;;;;;;5048221;28;20049;-79
2022/11/13 13:38:16;;;;;;;9.43;2.45;;;8.60;99.90;;;;;;5042104;28;20049;-80
2022/11/13 13:41:28;;;;;;;5.57;3.05;;;8.60;99.90;;;;;;5049528;28;20052;-78
2022/11/13 13:44:41;;;;;;;6.10;2.50;;;8.60;99.90;;;;;;5046790;28;20060;-78
2022/11/13 13:47:31;;;;;;;3.88;2.30;;;8.60;99.90;;;;;;5048139;28;20517;-77
2022/11/13 13:50:28;;;;;;;6.80;2.85;;;8.60;99.90;;;;;;5049696;28;20052;-73
2022/11/13 13:53:31;;;;;;;4.00;2.15;;;8.50;99.90;;;;;;5045684;28;20069;-74
2022/11/13 13:56:22;;;;;;;;;;;8.50;99.90;;;;;;5040447;28;20045;-71
2022/11/13 13:59:16;;;;;;;4.75;2.05;;;8.50;99.90;;;;;;5039691;28;19925;-74
2022/11/13 14:02:16;;;;;;;9.23;1.98;;;8.50;99.90;;;;;;5050829;28;20535;-73
2022/11/13 14:05:02;;;;;;;7.00;1.50;;;8.50;99.90;;;;;;5048475;28;20143;-72
2022/11/13 14:07:49;;;;;;;8.45;2.38;;;8.50;99.90;;;;;;5044328;28;20425;-79
2022/11/13 14:10:37;;;;;;;4.10;1.45;;;8.60;99.90;;;;;;5048023;28;20040;-76
2022/11/13 14:13:25;;;;;;;6.13;1.92;;;8.60;99.90;;;;;;5063521;28;20505;-77
2022/11/13 14:16:12;;;;;;;5.07;1.88;;;8.60;99.90;;;;;;5058541;28;20549;-77
2022/11/13 14:19:05;;;;;;;8.48;1.55;;;8.50;99.90;;;;;;5065481;28;20209;-78
2022/11/13 14:21:54;;;;;;;2.00;1.42;;;8.50;99.90;;;;;;5056268;28;20083;-79
2022/11/13 14:24:48;;;;;;;2.45;0.80;;;8.40;99.90;;;;;;5058778;28;20051;-74
2022/11/13 14:27:35;;;;;;;4.22;1.92;;;8.40;99.90;;;;;;5067074;28;20742;-74
2022/11/13 14:30:25;;;;;;;4.97;1.50;;;8.40;99.90;;;;;;5068706;28;20047;-73
2022/11/13 14:33:20;;;;;;;4.72;1.90;;;8.40;99.90;;;;;;5063730;28;20053;-77
2022/11/13 14:36:08;;;;;;;2.45;1.73;;;8.30;99.90;;;;;;5061803;28;20052;-78
2022/11/13 14:38:55;;;;;;;5.10;1.75;;;8.30;99.90;;;;;;5064578;28;20060;-74
2022/11/13 14:41:52;;;;;;;4.32;2.08;;;8.40;99.90;;;;;;5053983;28;20053;-74
2022/11/13 14:44:37;;;;;;;1.90;1.30;;;8.40;99.90;;;;;;5066104;28;20067;-74
2022/11/13 14:47:27;;;;;;;3.97;1.30;;;8.30;99.90;;;;;;5063742;28;20053;-74
2022/11/13 14:50:23;;;;;;;6.50;3.80;;;8.30;99.90;;;;;;5064758;28;20048;-79
2022/11/13 14:53:11;;;;;;;2.72;1.20;;;8.30;99.90;;;;;;5061864;28;20455;-78
2022/11/13 14:56:01;;;;;;;5.90;1.20;;;8.20;99.90;;;;;;5065685;28;20044;-78